Main page
METAR-TAF:

METAR-TAF

Airports :

Tekirdağ Çorlu Airport

Çorlu, Turkey

latitude: 41-08N, longitude: 027-55E, elevation: 173 m

Current weather observation

The report was made 23 minutes ago, at 19:20 UTC
Wind 7 kt from the East/Northeast
Temperature 18°C
Humidity 88%
Pressure 1018 hPa
Visibility 10 km or more
no clouds below 1500 m and no cumulonimbus

METAR: LTBU 161920Z 06007KT CAVOK 18/16 Q1018 RMK RWY22 05006KT

Time: 22:43 (19:43 UTC)

Forecast

The report was made 3 hours and 3 minutes ago, at 16:40 UTC
Forecast valid from 16 at 18 UTC to 17 at 18 UTC
Wind 2 kt from variable directions
Visibility 10 km or more
no clouds below 1500 m and no cumulonimbus
Temporary
from 17 at 00 UTC to 17 at 04 UTC
Visibility: 2000 m
Broken clouds at a height of 600 ft
mist
Becoming
from 17 at 05 UTC to 17 at 08 UTC
Wind 12 kt from the South/Southeast

TAF: LTBU 161640Z 1618/1718 VRB02KT CAVOK TEMPO 1700/1704 2000 BR BKN006 BECMG 1705/1708 16012KT

Weather observations and forecasts of more than 4000 airports (METAR and TAF reports).

The available stations are represented by yellow and red dots on the map.

Hover mouse over dot to see the name of the station.

Then click to see weather observations and forecasts.

To change the map : click on the green buttons with a black cross to zoom in, on the green button with a dash to zoom out, or on the green arrows for adjacent maps.


METAR-TAF: